Hlavní strana
METAR-TAF:

METAR-TAF

Letiště :

Kemi, Finsko

zeměpisná šířka: 65-47N, zeměpisná délka: 024-35E, výška: 15 m

Aktuální stav počasí

Zpráva byla vytvořena před 26 minutami, v 05:50 UTC
Severní vítr 13 kt
Teplota -2°C
Vlhkost vzduchu 74%
Tlak 1000 hPa
Viditelnost 10 km a více
Žádná oblačnost pod 1500 m, nevyskytují se cumulonimby.

METAR: EFKE 250550Z AUTO 36013KT CAVOK M02/M06 Q1000

Čas: 08:16 (06:16 UTC)

Předpověď počasí

Zpráva byla vytvořena před 44 minutami, v 05:32 UTC
Předpověď platná od 25 v 06 UTC do 25 v 15 UTC
Severní vítr 12 kt s nárazy do 22 kt
Viditelnost 10 km a více
Oblačno až skoro zataženo ve výšce 2500 ft
Pravděpodobnost 30%
od 25 v 06 UTC do 25 v 09 UTC
Viditelnost: 5000 m
Polojasno ve výšce 2000 ft, Vertikální cumulus.
slabé sněhové přeháňky

TAF: EFKE 250532Z 2506/2515 36012G22KT 9999 BKN025 PROB30 2506/2509 5000 -SHSN SCT020TCU

Stav a předpovědi počasí z více než 4 000 letišť (zprávy METAR a TAF).

Červené a žluté tečky na mapě představují dostupné meteorologické stanice.

Když kurzor umístíte na tečku, zobrazí se název stanice.

Pak kliknutím zobrazíte stav a předpověď počasí.

Chcete-li změnit mapu, kliknutím na zelené tlačítko se znaménkem +mapu přiblížíte, kliknutím na zelené tlačítko se znaménkem – mapu oddálíte a kliknutím na zelené šipky přejdete na sousední mapy.


METAR-TAF: